sensor_id;sensor_type;location;lat;lon;timestamp;P1;durP1;ratioP1;P2;durP2;ratioP2
66429;SDS011;53242;51.694;10.006;2022-08-19T00:00:09;18.55;;;8.65;;
66429;SDS011;53242;51.694;10.006;2022-08-19T00:02:32;16.88;;;8.10;;
66429;SDS011;53242;51.694;10.006;2022-08-19T00:04:55;17.27;;;9.00;;
66429;SDS011;53242;51.694;10.006;2022-08-19T00:07:18;17.27;;;7.85;;
66429;SDS011;53242;51.694;10.006;2022-08-19T00:09:41;18.20;;;8.48;;
66429;SDS011;53242;51.694;10.006;2022-08-19T00:12:04;18.00;;;7.32;;
66429;SDS011;53242;51.694;10.006;2022-08-19T00:14:27;16.38;;;7.93;;
66429;SDS011;53242;51.694;10.006;2022-08-19T00:16:53;15.77;;;7.78;;
66429;SDS011;53242;51.694;10.006;2022-08-19T00:19:16;16.48;;;7.70;;
66429;SDS011;53242;51.694;10.006;2022-08-19T00:21:39;16.17;;;8.15;;
66429;SDS011;53242;51.694;10.006;2022-08-19T00:24:01;14.32;;;7.50;;
66429;SDS011;53242;51.694;10.006;2022-08-19T00:26:25;17.13;;;7.82;;
66429;SDS011;53242;51.694;10.006;2022-08-19T00:31:10;18.13;;;7.23;;
66429;SDS011;53242;51.694;10.006;2022-08-19T00:33:33;17.25;;;7.90;;
66429;SDS011;53242;51.694;10.006;2022-08-19T00:35:56;16.27;;;7.80;;
66429;SDS011;53242;51.694;10.006;2022-08-19T00:38:18;16.20;;;7.50;;
66429;SDS011;53242;51.694;10.006;2022-08-19T00:40:44;14.57;;;7.63;;
66429;SDS011;53242;51.694;10.006;2022-08-19T00:43:10;15.50;;;7.53;;
66429;SDS011;53242;51.694;10.006;2022-08-19T00:45:35;15.82;;;7.75;;
66429;SDS011;53242;51.694;10.006;2022-08-19T00:47:58;18.33;;;8.02;;
66429;SDS011;53242;51.694;10.006;2022-08-19T00:50:21;16.13;;;7.68;;
66429;SDS011;53242;51.694;10.006;2022-08-19T00:52:45;16.40;;;7.03;;
66429;SDS011;53242;51.694;10.006;2022-08-19T00:55:13;15.85;;;7.78;;
66429;SDS011;53242;51.694;10.006;2022-08-19T00:57:42;16.80;;;7.85;;
66429;SDS011;53242;51.694;10.006;2022-08-19T01:00:11;15.73;;;7.07;;
66429;SDS011;53242;51.694;10.006;2022-08-19T01:02:36;16.50;;;7.13;;
66429;SDS011;53242;51.694;10.006;2022-08-19T01:05:00;17.88;;;7.07;;
66429;SDS011;53242;51.694;10.006;2022-08-19T01:07:26;16.02;;;8.05;;
66429;SDS011;53242;51.694;10.006;2022-08-19T01:09:49;17.02;;;7.90;;
66429;SDS011;53242;51.694;10.006;2022-08-19T01:12:11;19.33;;;8.10;;
66429;SDS011;53242;51.694;10.006;2022-08-19T01:14:34;19.90;;;8.00;;
66429;SDS011;53242;51.694;10.006;2022-08-19T01:17:00;15.73;;;7.45;;
66429;SDS011;53242;51.694;10.006;2022-08-19T01:19:26;14.52;;;6.93;;
66429;SDS011;53242;51.694;10.006;2022-08-19T01:21:53;18.15;;;7.70;;
66429;SDS011;53242;51.694;10.006;2022-08-19T01:24:23;16.02;;;7.20;;
66429;SDS011;53242;51.694;10.006;2022-08-19T01:26:45;15.50;;;7.32;;
66429;SDS011;53242;51.694;10.006;2022-08-19T01:29:08;15.48;;;7.32;;
66429;SDS011;53242;51.694;10.006;2022-08-19T01:31:31;16.88;;;7.60;;
66429;SDS011;53242;51.694;10.006;2022-08-19T01:33:54;17.30;;;7.70;;
66429;SDS011;53242;51.694;10.006;2022-08-19T01:36:24;16.17;;;7.28;;
66429;SDS011;53242;51.694;10.006;2022-08-19T01:38:50;15.23;;;7.00;;
66429;SDS011;53242;51.694;10.006;2022-08-19T01:41:12;16.80;;;7.53;;
66429;SDS011;53242;51.694;10.006;2022-08-19T01:43:35;17.95;;;7.60;;
66429;SDS011;53242;51.694;10.006;2022-08-19T01:45:58;17.42;;;6.95;;
66429;SDS011;53242;51.694;10.006;2022-08-19T01:48:21;16.58;;;7.32;;
66429;SDS011;53242;51.694;10.006;2022-08-19T01:50:43;17.48;;;7.15;;
66429;SDS011;53242;51.694;10.006;2022-08-19T01:53:08;14.57;;;7.03;;
66429;SDS011;53242;51.694;10.006;2022-08-19T01:55:35;15.23;;;7.03;;
66429;SDS011;53242;51.694;10.006;2022-08-19T01:58:00;15.60;;;7.03;;
66429;SDS011;53242;51.694;10.006;2022-08-19T02:00:26;17.00;;;7.22;;
66429;SDS011;53242;51.694;10.006;2022-08-19T02:02:51;15.55;;;6.75;;
66429;SDS011;53242;51.694;10.006;2022-08-19T02:05:14;14.25;;;6.32;;
66429;SDS011;53242;51.694;10.006;2022-08-19T02:07:39;15.32;;;6.93;;
66429;SDS011;53242;51.694;10.006;2022-08-19T02:10:03;14.55;;;6.43;;
66429;SDS011;53242;51.694;10.006;2022-08-19T02:12:27;13.38;;;6.82;;
66429;SDS011;53242;51.694;10.006;2022-08-19T02:14:50;15.35;;;6.95;;
66429;SDS011;53242;51.694;10.006;2022-08-19T02:17:12;16.20;;;6.72;;
66429;SDS011;53242;51.694;10.006;2022-08-19T02:19:35;15.35;;;7.55;;
66429;SDS011;53242;51.694;10.006;2022-08-19T02:21:58;16.48;;;6.90;;
66429;SDS011;53242;51.694;10.006;2022-08-19T02:24:21;14.77;;;6.50;;
66429;SDS011;53242;51.694;10.006;2022-08-19T02:26:44;13.25;;;6.47;;
66429;SDS011;53242;51.694;10.006;2022-08-19T02:29:06;14.45;;;6.47;;
66429;SDS011;53242;51.694;10.006;2022-08-19T02:31:28;15.13;;;6.20;;
66429;SDS011;53242;51.694;10.006;2022-08-19T02:33:51;13.98;;;7.25;;
66429;SDS011;53242;51.694;10.006;2022-08-19T02:36:15;15.48;;;6.30;;
66429;SDS011;53242;51.694;10.006;2022-08-19T02:38:38;19.50;;;8.20;;
66429;SDS011;53242;51.694;10.006;2022-08-19T02:41:03;14.63;;;6.72;;
66429;SDS011;53242;51.694;10.006;2022-08-19T02:43:30;15.00;;;7.60;;
66429;SDS011;53242;51.694;10.006;2022-08-19T02:45:53;18.20;;;7.03;;
66429;SDS011;53242;51.694;10.006;2022-08-19T02:48:16;16.15;;;7.10;;
66429;SDS011;53242;51.694;10.006;2022-08-19T02:50:40;16.42;;;7.40;;
66429;SDS011;53242;51.694;10.006;2022-08-19T02:53:03;14.20;;;6.57;;
66429;SDS011;53242;51.694;10.006;2022-08-19T02:55:25;13.40;;;6.32;;
66429;SDS011;53242;51.694;10.006;2022-08-19T02:57:48;14.52;;;6.72;;
66429;SDS011;53242;51.694;10.006;2022-08-19T03:00:10;15.68;;;6.68;;
66429;SDS011;53242;51.694;10.006;2022-08-19T03:02:34;14.65;;;6.35;;
66429;SDS011;53242;51.694;10.006;2022-08-19T03:04:57;14.00;;;7.18;;
66429;SDS011;53242;51.694;10.006;2022-08-19T03:07:19;14.48;;;7.03;;
66429;SDS011;53242;51.694;10.006;2022-08-19T03:09:42;16.02;;;7.50;;
66429;SDS011;53242;51.694;10.006;2022-08-19T03:12:05;16.27;;;6.80;;
66429;SDS011;53242;51.694;10.006;2022-08-19T03:14:29;14.70;;;6.95;;
66429;SDS011;53242;51.694;10.006;2022-08-19T03:16:53;14.00;;;6.80;;
66429;SDS011;53242;51.694;10.006;2022-08-19T03:19:16;18.05;;;7.13;;
66429;SDS011;53242;51.694;10.006;2022-08-19T03:21:41;16.35;;;7.32;;
66429;SDS011;53242;51.694;10.006;2022-08-19T03:24:07;15.23;;;6.90;;
66429;SDS011;53242;51.694;10.006;2022-08-19T03:26:31;12.15;;;6.45;;
66429;SDS011;53242;51.694;10.006;2022-08-19T03:28:53;15.15;;;7.07;;
66429;SDS011;53242;51.694;10.006;2022-08-19T03:31:18;15.95;;;6.70;;
66429;SDS011;53242;51.694;10.006;2022-08-19T03:33:42;14.52;;;6.80;;
66429;SDS011;53242;51.694;10.006;2022-08-19T03:36:10;12.43;;;6.38;;
66429;SDS011;53242;51.694;10.006;2022-08-19T03:38:33;15.93;;;7.07;;
66429;SDS011;53242;51.694;10.006;2022-08-19T03:40:55;12.45;;;6.50;;
66429;SDS011;53242;51.694;10.006;2022-08-19T03:43:18;14.35;;;6.65;;
66429;SDS011;53242;51.694;10.006;2022-08-19T03:45:41;13.43;;;6.10;;
66429;SDS011;53242;51.694;10.006;2022-08-19T03:48:03;12.00;;;6.20;;
66429;SDS011;53242;51.694;10.006;2022-08-19T03:50:26;14.60;;;6.32;;
66429;SDS011;53242;51.694;10.006;2022-08-19T03:52:51;13.30;;;6.30;;
66429;SDS011;53242;51.694;10.006;2022-08-19T03:55:14;14.27;;;6.28;;
66429;SDS011;53242;51.694;10.006;2022-08-19T03:57:36;15.43;;;7.20;;
66429;SDS011;53242;51.694;10.006;2022-08-19T03:59:59;14.05;;;5.75;;
66429;SDS011;53242;51.694;10.006;2022-08-19T04:02:21;13.23;;;5.97;;
66429;SDS011;53242;51.694;10.006;2022-08-19T04:04:44;14.77;;;5.88;;
66429;SDS011;53242;51.694;10.006;2022-08-19T04:07:06;11.40;;;5.18;;
66429;SDS011;53242;51.694;10.006;2022-08-19T04:09:30;10.25;;;4.50;;
66429;SDS011;53242;51.694;10.006;2022-08-19T04:11:53;11.63;;;4.75;;
66429;SDS011;53242;51.694;10.006;2022-08-19T04:14:19;9.30;;;4.22;;
66429;SDS011;53242;51.694;10.006;2022-08-19T04:16:44;11.00;;;4.40;;
66429;SDS011;53242;51.694;10.006;2022-08-19T04:19:08;11.13;;;5.07;;
66429;SDS011;53242;51.694;10.006;2022-08-19T04:21:30;11.73;;;4.78;;
66429;SDS011;53242;51.694;10.006;2022-08-19T04:23:53;11.40;;;5.20;;
66429;SDS011;53242;51.694;10.006;2022-08-19T04:28:42;9.27;;;4.57;;
66429;SDS011;53242;51.694;10.006;2022-08-19T04:31:05;10.80;;;4.20;;
66429;SDS011;53242;51.694;10.006;2022-08-19T04:33:27;9.05;;;4.20;;
66429;SDS011;53242;51.694;10.006;2022-08-19T04:35:51;13.05;;;4.20;;
66429;SDS011;53242;51.694;10.006;2022-08-19T04:40:42;10.65;;;4.85;;
66429;SDS011;53242;51.694;10.006;2022-08-19T04:43:25;9.20;;;4.30;;
66429;SDS011;53242;51.694;10.006;2022-08-19T04:45:48;8.30;;;3.95;;
66429;SDS011;53242;51.694;10.006;2022-08-19T04:48:10;8.90;;;4.40;;
66429;SDS011;53242;51.694;10.006;2022-08-19T04:50:34;8.60;;;3.97;;
66429;SDS011;53242;51.694;10.006;2022-08-19T04:52:58;9.93;;;4.05;;
66429;SDS011;53242;51.694;10.006;2022-08-19T04:55:20;8.60;;;3.95;;
66429;SDS011;53242;51.694;10.006;2022-08-19T04:57:43;10.50;;;4.10;;
66429;SDS011;53242;51.694;10.006;2022-08-19T05:00:06;9.75;;;4.13;;
66429;SDS011;53242;51.694;10.006;2022-08-19T05:02:30;10.43;;;4.15;;
66429;SDS011;53242;51.694;10.006;2022-08-19T05:04:56;8.98;;;4.10;;
66429;SDS011;53242;51.694;10.006;2022-08-19T05:07:20;13.45;;;4.30;;
66429;SDS011;53242;51.694;10.006;2022-08-19T05:09:43;10.63;;;4.40;;
66429;SDS011;53242;51.694;10.006;2022-08-19T05:12:05;10.32;;;4.80;;
66429;SDS011;53242;51.694;10.006;2022-08-19T05:14:28;12.30;;;4.40;;
66429;SDS011;53242;51.694;10.006;2022-08-19T05:16:51;12.07;;;3.75;;
66429;SDS011;53242;51.694;10.006;2022-08-19T05:19:13;10.73;;;3.63;;
66429;SDS011;53242;51.694;10.006;2022-08-19T05:21:54;12.88;;;3.88;;
66429;SDS011;53242;51.694;10.006;2022-08-19T05:24:35;10.10;;;4.28;;
66429;SDS011;53242;51.694;10.006;2022-08-19T05:26:59;8.88;;;3.63;;
66429;SDS011;53242;51.694;10.006;2022-08-19T05:29:25;9.15;;;3.85;;
66429;SDS011;53242;51.694;10.006;2022-08-19T05:31:49;11.90;;;4.43;;
66429;SDS011;53242;51.694;10.006;2022-08-19T05:34:12;8.40;;;3.38;;
66429;SDS011;53242;51.694;10.006;2022-08-19T05:36:37;11.70;;;4.03;;
66429;SDS011;53242;51.694;10.006;2022-08-19T05:39:03;10.05;;;3.75;;
66429;SDS011;53242;51.694;10.006;2022-08-19T05:41:26;9.43;;;3.58;;
66429;SDS011;53242;51.694;10.006;2022-08-19T05:43:52;8.38;;;3.70;;
66429;SDS011;53242;51.694;10.006;2022-08-19T05:46:17;8.38;;;3.55;;
66429;SDS011;53242;51.694;10.006;2022-08-19T05:48:41;9.25;;;3.63;;
66429;SDS011;53242;51.694;10.006;2022-08-19T05:51:06;9.63;;;3.50;;
66429;SDS011;53242;51.694;10.006;2022-08-19T05:53:30;8.93;;;4.15;;
66429;SDS011;53242;51.694;10.006;2022-08-19T05:55:52;8.40;;;3.78;;
66429;SDS011;53242;51.694;10.006;2022-08-19T05:58:15;10.40;;;4.43;;
66429;SDS011;53242;51.694;10.006;2022-08-19T06:00:37;8.23;;;3.75;;
66429;SDS011;53242;51.694;10.006;2022-08-19T06:03:00;10.48;;;4.15;;
66429;SDS011;53242;51.694;10.006;2022-08-19T06:05:25;12.00;;;3.97;;
66429;SDS011;53242;51.694;10.006;2022-08-19T06:07:47;9.40;;;3.83;;
66429;SDS011;53242;51.694;10.006;2022-08-19T06:10:10;10.77;;;3.78;;
66429;SDS011;53242;51.694;10.006;2022-08-19T06:12:33;7.47;;;3.85;;
66429;SDS011;53242;51.694;10.006;2022-08-19T06:14:57;10.02;;;3.70;;
66429;SDS011;53242;51.694;10.006;2022-08-19T06:17:19;9.00;;;3.83;;
66429;SDS011;53242;51.694;10.006;2022-08-19T06:19:43;9.27;;;4.22;;
66429;SDS011;53242;51.694;10.006;2022-08-19T06:22:05;9.20;;;4.13;;
66429;SDS011;53242;51.694;10.006;2022-08-19T06:24:28;10.18;;;3.95;;
66429;SDS011;53242;51.694;10.006;2022-08-19T06:26:52;10.75;;;4.20;;
66429;SDS011;53242;51.694;10.006;2022-08-19T06:29:16;10.88;;;4.18;;
66429;SDS011;53242;51.694;10.006;2022-08-19T06:31:41;11.40;;;4.50;;
66429;SDS011;53242;51.694;10.006;2022-08-19T06:34:05;7.97;;;3.70;;
66429;SDS011;53242;51.694;10.006;2022-08-19T06:36:29;10.73;;;4.13;;
66429;SDS011;53242;51.694;10.006;2022-08-19T06:38:56;9.68;;;3.90;;
66429;SDS011;53242;51.694;10.006;2022-08-19T06:41:19;9.10;;;4.05;;
66429;SDS011;53242;51.694;10.006;2022-08-19T06:43:42;11.77;;;4.22;;
66429;SDS011;53242;51.694;10.006;2022-08-19T06:46:09;8.35;;;3.70;;
66429;SDS011;53242;51.694;10.006;2022-08-19T06:48:35;10.38;;;3.63;;
66429;SDS011;53242;51.694;10.006;2022-08-19T06:50:58;9.32;;;4.18;;
66429;SDS011;53242;51.694;10.006;2022-08-19T06:53:20;12.10;;;4.70;;
66429;SDS011;53242;51.694;10.006;2022-08-19T06:55:43;9.90;;;3.90;;
66429;SDS011;53242;51.694;10.006;2022-08-19T06:58:05;8.25;;;3.88;;
66429;SDS011;53242;51.694;10.006;2022-08-19T07:00:28;11.00;;;4.30;;
66429;SDS011;53242;51.694;10.006;2022-08-19T07:02:50;11.43;;;3.60;;
66429;SDS011;53242;51.694;10.006;2022-08-19T07:05:13;8.73;;;3.58;;
66429;SDS011;53242;51.694;10.006;2022-08-19T07:07:35;7.45;;;3.15;;
66429;SDS011;53242;51.694;10.006;2022-08-19T07:09:58;8.70;;;3.38;;
66429;SDS011;53242;51.694;10.006;2022-08-19T07:12:20;7.65;;;3.20;;
66429;SDS011;53242;51.694;10.006;2022-08-19T07:14:42;8.90;;;3.42;;
66429;SDS011;53242;51.694;10.006;2022-08-19T07:17:09;8.57;;;3.35;;
66429;SDS011;53242;51.694;10.006;2022-08-19T07:19:32;7.43;;;3.30;;
66429;SDS011;53242;51.694;10.006;2022-08-19T07:21:56;6.38;;;3.10;;
66429;SDS011;53242;51.694;10.006;2022-08-19T07:24:22;7.95;;;3.20;;
66429;SDS011;53242;51.694;10.006;2022-08-19T07:26:46;8.80;;;3.25;;
66429;SDS011;53242;51.694;10.006;2022-08-19T07:29:09;10.25;;;3.83;;
66429;SDS011;53242;51.694;10.006;2022-08-19T07:31:32;5.88;;;2.85;;
66429;SDS011;53242;51.694;10.006;2022-08-19T07:33:58;6.50;;;2.95;;
66429;SDS011;53242;51.694;10.006;2022-08-19T07:36:22;8.60;;;3.13;;
66429;SDS011;53242;51.694;10.006;2022-08-19T07:38:54;7.78;;;3.35;;
66429;SDS011;53242;51.694;10.006;2022-08-19T07:41:18;10.27;;;3.75;;
66429;SDS011;53242;51.694;10.006;2022-08-19T07:43:43;7.32;;;3.08;;
66429;SDS011;53242;51.694;10.006;2022-08-19T07:46:07;8.90;;;3.58;;
66429;SDS011;53242;51.694;10.006;2022-08-19T07:48:29;7.97;;;3.35;;
66429;SDS011;53242;51.694;10.006;2022-08-19T07:50:53;7.57;;;3.33;;
66429;SDS011;53242;51.694;10.006;2022-08-19T07:53:16;8.40;;;3.90;;
66429;SDS011;53242;51.694;10.006;2022-08-19T07:55:39;11.15;;;3.00;;
66429;SDS011;53242;51.694;10.006;2022-08-19T07:58:01;7.72;;;3.03;;
66429;SDS011;53242;51.694;10.006;2022-08-19T08:00:24;8.43;;;3.20;;
66429;SDS011;53242;51.694;10.006;2022-08-19T08:02:46;7.63;;;3.00;;
66429;SDS011;53242;51.694;10.006;2022-08-19T08:05:09;7.65;;;3.40;;
66429;SDS011;53242;51.694;10.006;2022-08-19T08:07:51;9.57;;;3.60;;
66429;SDS011;53242;51.694;10.006;2022-08-19T08:10:32;9.18;;;3.55;;
66429;SDS011;53242;51.694;10.006;2022-08-19T08:12:54;9.50;;;3.55;;
66429;SDS011;53242;51.694;10.006;2022-08-19T08:15:17;6.88;;;3.03;;
66429;SDS011;53242;51.694;10.006;2022-08-19T08:17:40;6.40;;;3.50;;
66429;SDS011;53242;51.694;10.006;2022-08-19T08:20:03;6.35;;;3.15;;
66429;SDS011;53242;51.694;10.006;2022-08-19T08:22:28;9.65;;;3.50;;
66429;SDS011;53242;51.694;10.006;2022-08-19T08:25:13;9.40;;;3.50;;
66429;SDS011;53242;51.694;10.006;2022-08-19T08:27:39;6.47;;;3.00;;
66429;SDS011;53242;51.694;10.006;2022-08-19T08:30:03;5.35;;;2.67;;
66429;SDS011;53242;51.694;10.006;2022-08-19T08:32:31;5.47;;;2.40;;
66429;SDS011;53242;51.694;10.006;2022-08-19T08:34:53;5.90;;;2.40;;
66429;SDS011;53242;51.694;10.006;2022-08-19T08:37:16;5.13;;;2.30;;
66429;SDS011;53242;51.694;10.006;2022-08-19T08:39:38;5.43;;;2.03;;
66429;SDS011;53242;51.694;10.006;2022-08-19T08:42:08;5.57;;;2.10;;
66429;SDS011;53242;51.694;10.006;2022-08-19T08:44:54;4.28;;;2.30;;
66429;SDS011;53242;51.694;10.006;2022-08-19T08:47:20;5.55;;;2.95;;
66429;SDS011;53242;51.694;10.006;2022-08-19T08:49:50;5.03;;;2.10;;
66429;SDS011;53242;51.694;10.006;2022-08-19T08:52:22;4.57;;;1.88;;
66429;SDS011;53242;51.694;10.006;2022-08-19T08:54:48;5.03;;;2.08;;
66429;SDS011;53242;51.694;10.006;2022-08-19T08:57:15;5.93;;;2.53;;
66429;SDS011;53242;51.694;10.006;2022-08-19T08:59:43;4.70;;;2.38;;
66429;SDS011;53242;51.694;10.006;2022-08-19T09:02:12;4.63;;;2.05;;
66429;SDS011;53242;51.694;10.006;2022-08-19T09:04:35;5.00;;;2.20;;
66429;SDS011;53242;51.694;10.006;2022-08-19T09:10:05;7.25;;;2.50;;
66429;SDS011;53242;51.694;10.006;2022-08-19T09:12:34;4.75;;;2.33;;
66429;SDS011;53242;51.694;10.006;2022-08-19T09:15:08;5.43;;;2.38;;
66429;SDS011;53242;51.694;10.006;2022-08-19T09:17:33;4.57;;;2.30;;
66429;SDS011;53242;51.694;10.006;2022-08-19T09:19:58;5.88;;;2.20;;
66429;SDS011;53242;51.694;10.006;2022-08-19T09:22:27;5.50;;;2.58;;
66429;SDS011;53242;51.694;10.006;2022-08-19T09:24:50;5.22;;;2.28;;
66429;SDS011;53242;51.694;10.006;2022-08-19T09:27:16;4.65;;;2.45;;
66429;SDS011;53242;51.694;10.006;2022-08-19T09:29:38;7.18;;;2.55;;
66429;SDS011;53242;51.694;10.006;2022-08-19T09:32:01;5.95;;;2.47;;
66429;SDS011;53242;51.694;10.006;2022-08-19T09:34:24;7.45;;;2.70;;
66429;SDS011;53242;51.694;10.006;2022-08-19T09:36:46;5.43;;;2.42;;
66429;SDS011;53242;51.694;10.006;2022-08-19T09:39:08;5.22;;;2.40;;
66429;SDS011;53242;51.694;10.006;2022-08-19T09:41:31;5.72;;;2.95;;
66429;SDS011;53242;51.694;10.006;2022-08-19T09:43:54;6.65;;;2.63;;
66429;SDS011;53242;51.694;10.006;2022-08-19T09:46:18;5.00;;;2.53;;
66429;SDS011;53242;51.694;10.006;2022-08-19T09:48:42;5.00;;;2.53;;
66429;SDS011;53242;51.694;10.006;2022-08-19T09:51:07;4.50;;;2.40;;
66429;SDS011;53242;51.694;10.006;2022-08-19T09:53:31;7.70;;;2.90;;
66429;SDS011;53242;51.694;10.006;2022-08-19T09:55:54;8.00;;;3.50;;
66429;SDS011;53242;51.694;10.006;2022-08-19T09:58:17;7.03;;;2.78;;
66429;SDS011;53242;51.694;10.006;2022-08-19T10:00:39;8.15;;;3.13;;
66429;SDS011;53242;51.694;10.006;2022-08-19T10:03:02;6.10;;;2.72;;
66429;SDS011;53242;51.694;10.006;2022-08-19T10:05:24;6.93;;;2.83;;
66429;SDS011;53242;51.694;10.006;2022-08-19T10:08:05;4.95;;;2.53;;
66429;SDS011;53242;51.694;10.006;2022-08-19T10:10:28;6.10;;;2.75;;
66429;SDS011;53242;51.694;10.006;2022-08-19T10:12:51;6.97;;;3.17;;
66429;SDS011;53242;51.694;10.006;2022-08-19T10:15:13;5.60;;;2.95;;
66429;SDS011;53242;51.694;10.006;2022-08-19T10:17:36;6.68;;;2.58;;
66429;SDS011;53242;51.694;10.006;2022-08-19T10:19:59;7.70;;;2.60;;
66429;SDS011;53242;51.694;10.006;2022-08-19T10:22:22;7.45;;;2.85;;
66429;SDS011;53242;51.694;10.006;2022-08-19T10:24:45;6.40;;;2.72;;
66429;SDS011;53242;51.694;10.006;2022-08-19T10:27:08;7.22;;;3.20;;
66429;SDS011;53242;51.694;10.006;2022-08-19T10:29:31;5.90;;;3.00;;
66429;SDS011;53242;51.694;10.006;2022-08-19T10:31:56;5.93;;;2.45;;
66429;SDS011;53242;51.694;10.006;2022-08-19T10:34:19;5.68;;;2.63;;
66429;SDS011;53242;51.694;10.006;2022-08-19T10:36:42;4.35;;;2.17;;
66429;SDS011;53242;51.694;10.006;2022-08-19T10:39:06;5.35;;;2.40;;
66429;SDS011;53242;51.694;10.006;2022-08-19T10:41:32;4.35;;;2.40;;
66429;SDS011;53242;51.694;10.006;2022-08-19T10:43:57;6.07;;;2.40;;
66429;SDS011;53242;51.694;10.006;2022-08-19T10:46:22;3.90;;;2.05;;
66429;SDS011;53242;51.694;10.006;2022-08-19T10:48:46;4.82;;;2.08;;
66429;SDS011;53242;51.694;10.006;2022-08-19T10:51:09;3.88;;;2.17;;
66429;SDS011;53242;51.694;10.006;2022-08-19T10:53:51;4.05;;;2.30;;
66429;SDS011;53242;51.694;10.006;2022-08-19T10:56:13;3.60;;;2.00;;
66429;SDS011;53242;51.694;10.006;2022-08-19T10:58:55;4.05;;;2.00;;
66429;SDS011;53242;51.694;10.006;2022-08-19T11:01:18;6.15;;;2.17;;
66429;SDS011;53242;51.694;10.006;2022-08-19T11:03:41;7.35;;;2.63;;
66429;SDS011;53242;51.694;10.006;2022-08-19T11:06:05;6.07;;;2.67;;
66429;SDS011;53242;51.694;10.006;2022-08-19T11:08:28;5.63;;;1.85;;
66429;SDS011;53242;51.694;10.006;2022-08-19T11:10:53;5.90;;;2.35;;
66429;SDS011;53242;51.694;10.006;2022-08-19T11:13:32;5.50;;;2.20;;
66429;SDS011;53242;51.694;10.006;2022-08-19T11:16:03;5.15;;;2.28;;
66429;SDS011;53242;51.694;10.006;2022-08-19T11:18:31;4.75;;;2.33;;
66429;SDS011;53242;51.694;10.006;2022-08-19T11:20:54;3.83;;;2.15;;
66429;SDS011;53242;51.694;10.006;2022-08-19T11:23:18;5.85;;;2.25;;
66429;SDS011;53242;51.694;10.006;2022-08-19T11:25:54;3.40;;;2.20;;
66429;SDS011;53242;51.694;10.006;2022-08-19T11:28:25;3.33;;;1.90;;
66429;SDS011;53242;51.694;10.006;2022-08-19T11:30:49;3.67;;;1.95;;
66429;SDS011;53242;51.694;10.006;2022-08-19T11:33:13;4.68;;;2.10;;
66429;SDS011;53242;51.694;10.006;2022-08-19T11:35:39;3.72;;;1.90;;
66429;SDS011;53242;51.694;10.006;2022-08-19T11:38:15;4.03;;;2.00;;
66429;SDS011;53242;51.694;10.006;2022-08-19T11:40:42;5.13;;;2.33;;
66429;SDS011;53242;51.694;10.006;2022-08-19T11:43:09;6.57;;;2.33;;
66429;SDS011;53242;51.694;10.006;2022-08-19T11:45:34;6.32;;;2.55;;
66429;SDS011;53242;51.694;10.006;2022-08-19T11:48:00;6.57;;;2.63;;
66429;SDS011;53242;51.694;10.006;2022-08-19T11:50:25;5.65;;;2.10;;
66429;SDS011;53242;51.694;10.006;2022-08-19T11:52:48;3.83;;;1.90;;
66429;SDS011;53242;51.694;10.006;2022-08-19T11:55:12;3.50;;;2.03;;
66429;SDS011;53242;51.694;10.006;2022-08-19T11:57:36;3.22;;;1.80;;
66429;SDS011;53242;51.694;10.006;2022-08-19T11:59:58;5.28;;;2.10;;
66429;SDS011;53242;51.694;10.006;2022-08-19T12:02:21;2.92;;;1.95;;
66429;SDS011;53242;51.694;10.006;2022-08-19T12:04:43;2.28;;;1.60;;
66429;SDS011;53242;51.694;10.006;2022-08-19T12:07:06;3.53;;;1.88;;
66429;SDS011;53242;51.694;10.006;2022-08-19T12:09:28;2.42;;;1.80;;
66429;SDS011;53242;51.694;10.006;2022-08-19T12:11:51;5.70;;;2.08;;
66429;SDS011;53242;51.694;10.006;2022-08-19T12:14:13;3.22;;;1.73;;
66429;SDS011;53242;51.694;10.006;2022-08-19T12:16:36;3.05;;;1.60;;
66429;SDS011;53242;51.694;10.006;2022-08-19T12:18:58;2.90;;;1.40;;
66429;SDS011;53242;51.694;10.006;2022-08-19T12:21:26;1.85;;;1.20;;
66429;SDS011;53242;51.694;10.006;2022-08-19T12:23:50;2.33;;;1.30;;
66429;SDS011;53242;51.694;10.006;2022-08-19T12:26:13;1.90;;;1.40;;
66429;SDS011;53242;51.694;10.006;2022-08-19T12:28:36;3.35;;;1.42;;
66429;SDS011;53242;51.694;10.006;2022-08-19T12:30:59;2.17;;;1.50;;
66429;SDS011;53242;51.694;10.006;2022-08-19T12:33:22;3.88;;;1.38;;
66429;SDS011;53242;51.694;10.006;2022-08-19T12:35:47;2.30;;;1.30;;
66429;SDS011;53242;51.694;10.006;2022-08-19T12:38:10;4.15;;;1.58;;
66429;SDS011;53242;51.694;10.006;2022-08-19T12:40:32;2.45;;;1.45;;
66429;SDS011;53242;51.694;10.006;2022-08-19T12:42:55;2.50;;;1.30;;
66429;SDS011;53242;51.694;10.006;2022-08-19T12:45:17;3.72;;;1.67;;
66429;SDS011;53242;51.694;10.006;2022-08-19T12:47:41;2.50;;;1.40;;
66429;SDS011;53242;51.694;10.006;2022-08-19T12:50:03;2.38;;;1.63;;
66429;SDS011;53242;51.694;10.006;2022-08-19T12:52:30;3.35;;;1.50;;
66429;SDS011;53242;51.694;10.006;2022-08-19T12:54:53;1.92;;;1.35;;
66429;SDS011;53242;51.694;10.006;2022-08-19T12:57:17;2.50;;;1.30;;
66429;SDS011;53242;51.694;10.006;2022-08-19T12:59:39;4.57;;;1.40;;
66429;SDS011;53242;51.694;10.006;2022-08-19T13:02:03;3.90;;;1.50;;
66429;SDS011;53242;51.694;10.006;2022-08-19T13:04:28;2.97;;;1.35;;
66429;SDS011;53242;51.694;10.006;2022-08-19T13:06:50;1.85;;;1.20;;
66429;SDS011;53242;51.694;10.006;2022-08-19T13:09:12;2.75;;;1.48;;
66429;SDS011;53242;51.694;10.006;2022-08-19T13:11:35;2.45;;;1.60;;
66429;SDS011;53242;51.694;10.006;2022-08-19T13:14:00;2.30;;;1.35;;
66429;SDS011;53242;51.694;10.006;2022-08-19T13:16:23;2.70;;;1.23;;
66429;SDS011;53242;51.694;10.006;2022-08-19T13:18:46;2.63;;;1.40;;
66429;SDS011;53242;51.694;10.006;2022-08-19T13:21:13;3.15;;;1.35;;
66429;SDS011;53242;51.694;10.006;2022-08-19T13:23:36;4.80;;;1.60;;
66429;SDS011;53242;51.694;10.006;2022-08-19T13:25:59;3.42;;;1.40;;
66429;SDS011;53242;51.694;10.006;2022-08-19T13:28:24;3.28;;;1.13;;
66429;SDS011;53242;51.694;10.006;2022-08-19T13:30:47;2.97;;;1.27;;
66429;SDS011;53242;51.694;10.006;2022-08-19T13:33:28;2.63;;;1.23;;
66429;SDS011;53242;51.694;10.006;2022-08-19T13:35:53;2.38;;;1.15;;
66429;SDS011;53242;51.694;10.006;2022-08-19T13:38:20;1.77;;;1.25;;
66429;SDS011;53242;51.694;10.006;2022-08-19T13:40:43;1.60;;;1.23;;
66429;SDS011;53242;51.694;10.006;2022-08-19T13:43:05;2.25;;;1.20;;
66429;SDS011;53242;51.694;10.006;2022-08-19T13:45:29;1.95;;;1.30;;
66429;SDS011;53242;51.694;10.006;2022-08-19T13:47:56;2.67;;;1.50;;
66429;SDS011;53242;51.694;10.006;2022-08-19T13:50:20;2.70;;;1.30;;
66429;SDS011;53242;51.694;10.006;2022-08-19T13:52:43;4.95;;;1.30;;
66429;SDS011;53242;51.694;10.006;2022-08-19T13:55:06;3.90;;;1.40;;
66429;SDS011;53242;51.694;10.006;2022-08-19T13:57:30;2.25;;;1.50;;
66429;SDS011;53242;51.694;10.006;2022-08-19T13:59:52;2.35;;;1.30;;
66429;SDS011;53242;51.694;10.006;2022-08-19T14:02:15;5.45;;;1.35;;
66429;SDS011;53242;51.694;10.006;2022-08-19T14:04:37;2.78;;;1.35;;
66429;SDS011;53242;51.694;10.006;2022-08-19T14:06:59;2.30;;;1.33;;
66429;SDS011;53242;51.694;10.006;2022-08-19T14:09:23;2.40;;;1.30;;
66429;SDS011;53242;51.694;10.006;2022-08-19T14:11:45;2.40;;;1.30;;
66429;SDS011;53242;51.694;10.006;2022-08-19T14:14:08;2.40;;;1.52;;
66429;SDS011;53242;51.694;10.006;2022-08-19T14:16:31;3.00;;;1.48;;
66429;SDS011;53242;51.694;10.006;2022-08-19T14:18:53;2.33;;;1.50;;
66429;SDS011;53242;51.694;10.006;2022-08-19T14:21:17;2.20;;;1.48;;